createdAt,value
2018-05-26T00:00:50.588Z,100295.88
2018-05-26T00:03:20.144Z,100293.63
2018-05-26T00:05:49.722Z,100288.28
2018-05-26T00:08:19.324Z,100293.34
2018-05-26T00:13:00.780Z,100294.20
2018-05-26T00:15:31.134Z,100294.05
2018-05-26T00:18:01.455Z,100290.72
2018-05-26T00:20:31.803Z,100293.38
2018-05-26T00:23:02.282Z,100289.36
2018-05-26T00:25:31.871Z,100288.55
2018-05-26T00:28:01.444Z,100292.20
2018-05-26T00:30:30.998Z,100292.61
2018-05-26T00:33:00.568Z,100293.19
2018-05-26T00:35:30.093Z,100295.34
2018-05-26T00:38:00.458Z,100292.79
2018-05-26T00:40:30.036Z,100298.37
2018-05-26T00:42:59.610Z,100298.23
2018-05-26T00:45:29.193Z,100297.96
2018-05-26T00:47:58.776Z,100300.19
2018-05-26T00:50:28.342Z,100300.72
2018-05-26T00:52:57.920Z,100300.05
2018-05-26T00:55:27.493Z,100299.33
2018-05-26T00:57:57.048Z,100302.70
2018-05-26T01:00:26.599Z,100299.02
2018-05-26T01:02:56.170Z,100299.45
2018-05-26T01:05:25.738Z,100300.89
2018-05-26T01:07:56.087Z,100300.02
2018-05-26T01:10:27.198Z,100303.77
2018-05-26T01:12:57.563Z,100298.02
2018-05-26T01:15:27.885Z,100300.59
2018-05-26T01:17:57.437Z,100300.31
2018-05-26T01:20:27.177Z,100294.51
2018-05-26T01:22:57.497Z,100296.20
2018-05-26T01:25:27.862Z,100299.03
2018-05-26T01:27:59.734Z,100295.36
2018-05-26T01:30:32.249Z,100294.01
2018-05-26T01:33:01.778Z,100298.59
2018-05-26T01:35:34.294Z,100294.03
2018-05-26T01:38:03.866Z,100302.56
2018-05-26T01:40:33.479Z,100296.19
2018-05-26T01:43:03.037Z,100298.61
2018-05-26T01:45:32.602Z,100292.98
2018-05-26T01:48:02.934Z,100291.42
2018-05-26T01:50:32.485Z,100292.90
2018-05-26T01:53:02.068Z,100289.68
2018-05-26T01:55:32.372Z,100284.30
2018-05-26T01:58:02.708Z,100283.16
2018-05-26T02:00:32.266Z,100285.06
2018-05-26T02:03:03.414Z,100289.13
2018-05-26T02:05:32.973Z,100286.34
2018-05-26T02:08:02.564Z,100286.39
2018-05-26T02:10:32.137Z,100287.23
2018-05-26T02:13:01.711Z,100287.30
2018-05-26T02:15:31.281Z,100295.27
2018-05-26T02:18:00.841Z,100289.44
2018-05-26T02:20:30.422Z,100285.67
2018-05-26T02:22:59.974Z,100287.81
2018-05-26T02:25:29.545Z,100287.00
2018-05-26T02:27:59.866Z,100287.63
2018-05-26T02:30:29.444Z,100288.78
2018-05-26T02:32:59.792Z,100286.10
2018-05-26T02:35:29.386Z,100286.39
2018-05-26T02:37:59.823Z,100283.56
2018-05-26T02:40:29.400Z,100284.97
2018-05-26T02:42:59.741Z,100287.38
2018-05-26T02:45:29.305Z,100288.09
2018-05-26T02:47:59.653Z,100293.46
2018-05-26T02:50:29.998Z,100297.28
2018-05-26T02:52:59.553Z,100294.45
2018-05-26T02:55:31.485Z,100294.39
2018-05-26T02:58:02.601Z,100294.56
2018-05-26T03:00:32.174Z,100290.33
2018-05-26T03:03:01.722Z,100293.36
2018-05-26T03:05:37.422Z,100292.18
2018-05-26T03:08:13.816Z,100292.45
2018-05-26T03:10:52.573Z,100291.55
2018-05-26T03:13:29.845Z,100294.23
2018-05-26T03:17:25.242Z,100291.54
2018-05-26T03:19:56.363Z,100294.06
2018-05-26T03:22:27.454Z,100294.30
2018-05-26T03:24:59.341Z,100297.02
2018-05-26T03:27:31.852Z,100294.98
2018-05-26T03:30:01.413Z,100297.91
2018-05-26T03:32:32.513Z,100303.98
2018-05-26T03:35:02.097Z,100301.59
2018-05-26T03:37:32.454Z,100307.72
2018-05-26T03:40:02.049Z,100307.37
2018-05-26T03:42:31.616Z,100306.55
2018-05-26T03:45:01.207Z,100318.30
2018-05-26T03:47:30.793Z,100310.50
2018-05-26T03:50:00.377Z,100313.71
2018-05-26T03:52:31.489Z,100312.81
2018-05-26T03:55:59.081Z,100310.63
2018-05-26T03:58:55.335Z,100310.44
2018-05-26T04:01:24.914Z,100312.48
2018-05-26T04:03:54.469Z,100308.91
2018-05-26T04:06:24.039Z,100317.66
2018-05-26T04:08:54.409Z,100322.31
2018-05-26T04:11:24.059Z,100322.06
2018-05-26T04:13:53.619Z,100324.23
2018-05-26T04:16:23.196Z,100328.87
2018-05-26T04:18:52.775Z,100331.39
2018-05-26T04:21:34.917Z,100331.69
2018-05-26T04:24:04.481Z,100332.39
2018-05-26T04:26:34.196Z,100329.69
2018-05-26T04:29:04.559Z,100332.67
2018-05-26T04:31:34.105Z,100340.59
2018-05-26T04:34:03.686Z,100341.73
2018-05-26T04:36:33.249Z,100340.19
2018-05-26T04:39:04.413Z,100345.36
2018-05-26T04:41:33.336Z,100346.95
2018-05-26T04:44:02.133Z,100347.21
2018-05-26T04:46:31.733Z,100353.25
2018-05-26T04:49:01.293Z,100353.14
2018-05-26T04:51:30.917Z,100354.09
2018-05-26T04:54:00.480Z,100353.84
2018-05-26T04:56:30.048Z,100355.44
2018-05-26T04:58:59.614Z,100360.01
2018-05-26T05:01:29.191Z,100363.98
2018-05-26T05:03:58.731Z,100367.85
2018-05-26T05:06:28.297Z,100364.38
2018-05-26T05:08:57.889Z,100366.28
2018-05-26T05:11:27.465Z,100368.44
2018-05-26T05:13:57.053Z,100373.84
2018-05-26T05:16:26.629Z,100368.22
2018-05-26T05:18:56.190Z,100372.06
2018-05-26T05:21:25.777Z,100375.97
2018-05-26T05:23:55.353Z,100369.80
2018-05-26T05:26:24.930Z,100367.86
2018-05-26T05:28:54.499Z,100375.23
2018-05-26T05:31:24.062Z,100376.45
2018-05-26T05:34:06.965Z,100380.38
2018-05-26T05:36:36.576Z,100383.94
2018-05-26T05:39:06.265Z,100390.30
2018-05-26T05:41:35.866Z,100394.77
2018-05-26T05:44:05.452Z,100397.20
2018-05-26T05:46:35.020Z,100393.00
2018-05-26T05:49:04.595Z,100395.21
2018-05-26T05:51:37.107Z,100397.95
2018-05-26T05:54:06.677Z,100401.12
2018-05-26T05:56:37.002Z,100398.22
2018-05-26T05:59:06.567Z,100394.04
2018-05-26T06:01:36.152Z,100390.00
2018-05-26T06:04:05.701Z,100395.48
2018-05-26T06:06:36.061Z,100394.24
2018-05-26T06:09:05.744Z,100398.33
2018-05-26T06:11:35.320Z,100396.70
2018-05-26T06:14:05.013Z,100406.29
2018-05-26T06:16:34.590Z,100405.09
2018-05-26T06:19:04.187Z,100412.38
2018-05-26T06:21:33.761Z,100403.80
2018-05-26T06:24:03.313Z,100407.64
2018-05-26T06:26:32.911Z,100406.67
2018-05-26T06:29:02.469Z,100408.70
2018-05-26T06:31:32.044Z,100412.45
2018-05-26T06:34:01.658Z,100415.75
2018-05-26T06:36:31.250Z,100420.16
2018-05-26T06:39:00.824Z,100418.30
2018-05-26T06:41:30.398Z,100414.73
2018-05-26T06:43:59.990Z,100417.81
2018-05-26T06:46:30.376Z,100415.47
2018-05-26T06:49:01.475Z,100415.19
2018-05-26T06:51:31.042Z,100419.34
2018-05-26T06:54:00.594Z,100418.64
2018-05-26T06:56:30.192Z,100420.35
2018-05-26T06:58:59.745Z,100414.41
2018-05-26T07:01:29.326Z,100409.38
2018-05-26T07:04:11.500Z,100413.45
2018-05-26T07:06:41.085Z,100413.50
2018-05-26T07:09:12.273Z,100414.19
2018-05-26T07:11:41.857Z,100417.05
2018-05-26T07:14:12.181Z,100413.58
2018-05-26T07:16:41.749Z,100419.31
2018-05-26T07:19:12.061Z,100412.97
2018-05-26T07:21:41.649Z,100417.13
2018-05-26T07:24:11.203Z,100411.06
2018-05-26T07:26:40.789Z,100411.86
2018-05-26T07:29:12.686Z,100413.78
2018-05-26T07:31:42.253Z,100413.05
2018-05-26T07:34:12.601Z,100406.63
2018-05-26T07:36:45.213Z,100403.25
2018-05-26T07:39:14.810Z,100400.97
2018-05-26T07:41:45.180Z,100400.25
2018-05-26T07:44:15.548Z,100405.71
2018-05-26T07:46:45.150Z,100406.08
2018-05-26T07:49:15.259Z,100409.78
2018-05-26T07:51:45.245Z,100401.90
2018-05-26T07:54:27.431Z,100407.13
2018-05-26T07:56:56.985Z,100407.20
2018-05-26T07:59:29.484Z,100409.19
2018-05-26T08:02:01.994Z,100401.23
2018-05-26T08:04:32.364Z,100403.77
2018-05-26T08:07:02.726Z,100399.87
2018-05-26T08:09:32.335Z,100398.25
2018-05-26T08:12:02.709Z,100403.39
2018-05-26T08:14:32.271Z,100400.24
2018-05-26T08:17:02.643Z,100406.53
2018-05-26T08:19:32.187Z,100402.20
2018-05-26T08:22:02.536Z,100410.36
2018-05-26T08:24:32.092Z,100414.66
2018-05-26T08:27:02.313Z,100417.58
2018-05-26T08:29:32.653Z,100418.70
2018-05-26T08:32:02.225Z,100417.98
2018-05-26T08:34:33.559Z,100415.86
2018-05-26T08:37:03.572Z,100419.66
2018-05-26T08:39:33.974Z,100418.09
2018-05-26T08:42:03.678Z,100419.06
2018-05-26T08:44:33.320Z,100423.11
2018-05-26T08:47:02.911Z,100416.38
2018-05-26T08:49:32.478Z,100415.00
2018-05-26T08:52:03.637Z,100416.28
2018-05-26T08:54:33.207Z,100415.97
2018-05-26T08:57:03.586Z,100417.42
2018-05-26T08:59:33.214Z,100414.16
2018-05-26T09:02:02.854Z,100423.31
2018-05-26T09:04:33.210Z,100426.10
2018-05-26T09:07:05.962Z,100430.69
2018-05-26T09:09:39.637Z,100428.84
2018-05-26T09:12:09.237Z,100420.88
2018-05-26T09:14:38.837Z,100418.38
2018-05-26T09:17:08.439Z,100418.89
2018-05-26T09:19:38.784Z,100409.73
2018-05-26T09:22:08.400Z,100414.25
2018-05-26T09:24:37.998Z,100416.08
2018-05-26T09:27:07.594Z,100415.44
2018-05-26T09:29:37.162Z,100416.51
2018-05-26T09:32:06.749Z,100415.71
2018-05-26T09:34:49.914Z,100414.98
2018-05-26T09:37:19.502Z,100411.22
2018-05-26T09:39:49.098Z,100408.52
2018-05-26T09:42:18.740Z,100417.59
2018-05-26T09:44:48.338Z,100414.64
2018-05-26T09:47:19.461Z,100418.88
2018-05-26T09:49:49.814Z,100422.12
2018-05-26T09:52:19.378Z,100417.16
2018-05-26T09:54:48.946Z,100414.67
2018-05-26T09:57:18.541Z,100422.29
2018-05-26T09:59:48.093Z,100421.48
2018-05-26T10:02:17.652Z,100414.69
2018-05-26T10:04:47.220Z,100405.67
2018-05-26T10:07:16.818Z,100401.88
2018-05-26T10:09:46.403Z,100401.19
2018-05-26T10:12:16.000Z,100404.00
2018-05-26T10:14:45.586Z,100404.57
2018-05-26T10:17:15.189Z,100400.39
2018-05-26T10:19:44.784Z,100401.55
2018-05-26T10:22:14.381Z,100399.59
2018-05-26T10:24:43.937Z,100397.09
2018-05-26T10:27:13.539Z,100396.91
2018-05-26T10:29:43.858Z,100395.60
2018-05-26T10:32:14.270Z,100390.20
2018-05-26T10:34:43.824Z,100389.99
2018-05-26T10:37:13.434Z,100385.75
2018-05-26T10:39:43.965Z,100388.27
2018-05-26T10:42:13.558Z,100382.31
2018-05-26T10:44:43.137Z,100380.45
2018-05-26T10:47:12.693Z,100380.31
2018-05-26T10:49:44.619Z,100383.39
2018-05-26T10:52:18.079Z,100375.03
2018-05-26T10:54:49.084Z,100372.84
2018-05-26T10:57:21.857Z,100378.97
2018-05-26T10:59:53.814Z,100379.53
2018-05-26T11:02:23.381Z,100379.69
2018-05-26T11:04:52.977Z,100380.91
2018-05-26T11:07:22.562Z,100379.70
2018-05-26T11:09:52.217Z,100376.33
2018-05-26T11:12:22.668Z,100381.27
2018-05-26T11:14:52.275Z,100382.16
2018-05-26T11:17:21.929Z,100382.00
2018-05-26T11:19:51.494Z,100390.30
2018-05-26T11:22:23.998Z,100389.75
2018-05-26T11:24:53.617Z,100385.00
2018-05-26T11:27:23.176Z,100385.48
2018-05-26T11:29:54.275Z,100384.70
2018-05-26T11:32:24.628Z,100389.05
2018-05-26T11:34:54.179Z,100380.80
2018-05-26T11:37:24.588Z,100379.13
2018-05-26T11:39:54.178Z,100385.92
2018-05-26T11:42:24.556Z,100380.69
2018-05-26T11:44:56.499Z,100373.33
2018-05-26T11:47:37.906Z,100374.59
2018-05-26T11:50:07.513Z,100372.25
2018-05-26T11:52:38.641Z,100371.73
2018-05-26T11:55:08.238Z,100368.31
2018-05-26T11:57:37.825Z,100368.98
2018-05-26T12:00:08.175Z,100365.45
2018-05-26T12:02:39.414Z,100369.36
2018-05-26T12:05:08.997Z,100369.44
2018-05-26T12:07:38.602Z,100367.80
2018-05-26T12:10:08.963Z,100368.38
2018-05-26T12:12:41.476Z,100368.40
2018-05-26T12:15:11.052Z,100363.75
2018-05-26T12:17:41.409Z,100358.52
2018-05-26T12:20:10.978Z,100367.41
2018-05-26T12:22:40.555Z,100371.11
2018-05-26T12:25:11.666Z,100369.96
2018-05-26T12:27:41.743Z,100367.66
2018-05-26T12:30:11.343Z,100369.22
2018-05-26T12:32:40.909Z,100362.95
2018-05-26T12:35:11.265Z,100363.81
2018-05-26T12:37:40.885Z,100361.47
2018-05-26T12:40:10.571Z,100361.07
2018-05-26T12:42:40.857Z,100353.33
2018-05-26T12:45:10.420Z,100362.86
2018-05-26T12:47:42.986Z,100360.67
2018-05-26T12:50:12.578Z,100368.12
2018-05-26T12:52:42.191Z,100365.53
2018-05-26T12:55:11.766Z,100369.41
2018-05-26T12:57:42.164Z,100367.28
2018-05-26T13:00:11.729Z,100363.08
2018-05-26T13:02:42.082Z,100369.13
2018-05-26T13:05:11.683Z,100368.56
2018-05-26T13:07:41.328Z,100363.23
2018-05-26T13:10:12.459Z,100357.80
2018-05-26T13:12:42.973Z,100355.08
2018-05-26T13:15:13.326Z,100351.80
2018-05-26T13:17:56.250Z,100352.07
2018-05-26T13:20:25.848Z,100348.91
2018-05-26T13:22:55.381Z,100343.52
2018-05-26T13:25:26.503Z,100344.27
2018-05-26T13:27:56.208Z,100338.80
2018-05-26T13:30:27.340Z,100338.65
2018-05-26T13:32:56.925Z,100332.31
2018-05-26T13:35:28.060Z,100329.50
2018-05-26T13:38:00.148Z,100335.84
2018-05-26T13:40:29.733Z,100335.77
2018-05-26T13:42:59.421Z,100334.69
2018-05-26T13:45:29.186Z,100340.23
2018-05-26T13:47:59.733Z,100338.16
2018-05-26T13:50:29.454Z,100334.55
2018-05-26T13:52:58.977Z,100330.74
2018-05-26T13:55:30.537Z,100326.85
2018-05-26T13:58:00.041Z,100330.50
2018-05-26T14:00:29.597Z,100327.86
2018-05-26T14:02:59.163Z,100331.62
2018-05-26T14:05:44.038Z,100328.66
2018-05-26T14:08:15.160Z,100332.99
2018-05-26T14:10:44.761Z,100331.14
2018-05-26T14:13:14.341Z,100330.78
2018-05-26T14:15:45.466Z,100327.64
2018-05-26T14:18:15.050Z,100330.15
2018-05-26T14:20:45.416Z,100321.76
2018-05-26T14:23:15.744Z,100315.08
2018-05-26T14:25:46.104Z,100308.20
2018-05-26T14:28:15.671Z,100309.85
2018-05-26T14:30:45.241Z,100304.20
2018-05-26T14:33:15.623Z,100302.33
2018-05-26T14:35:45.211Z,100297.16
2018-05-26T14:38:14.827Z,100303.52
2018-05-26T14:40:44.423Z,100300.16
2018-05-26T14:43:14.753Z,100297.39
2018-05-26T14:45:44.342Z,100286.73
2018-05-26T14:48:14.733Z,100293.61
2018-05-26T14:50:44.325Z,100293.59
2018-05-26T14:53:13.926Z,100295.20
2018-05-26T14:55:43.516Z,100294.03
2018-05-26T14:58:13.139Z,100286.48
2018-05-26T15:00:42.756Z,100286.99
2018-05-26T15:03:13.120Z,100280.66
2018-05-26T15:05:42.702Z,100283.80
2018-05-26T15:08:13.038Z,100279.00
2018-05-26T15:10:42.610Z,100280.06
2018-05-26T15:13:12.252Z,100278.03
2018-05-26T15:15:44.739Z,100285.38
2018-05-26T15:18:17.275Z,100275.73
2018-05-26T15:20:46.885Z,100274.81
2018-05-26T15:23:17.234Z,100273.67
2018-05-26T15:25:47.647Z,100278.91
2018-05-26T15:28:18.022Z,100274.59
2018-05-26T15:30:47.626Z,100281.09
2018-05-26T15:33:17.221Z,100276.12
2018-05-26T15:35:46.833Z,100275.39
2018-05-26T15:38:16.443Z,100275.31
2018-05-26T15:40:46.061Z,100276.56
2018-05-26T15:43:16.497Z,100276.10
2018-05-26T15:45:46.826Z,100273.19
2018-05-26T15:48:17.965Z,100268.45
2018-05-26T15:50:47.526Z,100272.55
2018-05-26T15:53:17.133Z,100266.05
2018-05-26T15:55:47.523Z,100263.30
2018-05-26T15:58:17.927Z,100259.70
2018-05-26T16:00:48.812Z,100260.24
2018-05-26T16:03:18.415Z,100264.78
2018-05-26T16:05:48.008Z,100266.78
2018-05-26T16:08:22.921Z,100261.66
2018-05-26T16:10:55.453Z,100264.92
2018-05-26T16:13:25.817Z,100261.30
2018-05-26T16:15:55.469Z,100259.80
2018-05-26T16:18:25.081Z,100255.47
2018-05-26T16:20:54.726Z,100259.45
2018-05-26T16:23:25.074Z,100258.52
2018-05-26T16:25:55.473Z,100255.90
2018-05-26T16:28:25.810Z,100261.58
2018-05-26T16:30:55.554Z,100257.48
2018-05-26T16:33:25.119Z,100256.49
2018-05-26T16:35:56.300Z,100263.91
2018-05-26T16:38:25.910Z,100260.55
2018-05-26T16:41:08.118Z,100260.56
2018-05-26T16:43:37.715Z,100263.14
2018-05-26T16:46:07.331Z,100266.14
2018-05-26T16:48:36.936Z,100262.47
2018-05-26T16:51:07.310Z,100259.37
2018-05-26T16:53:37.981Z,100260.50
2018-05-26T16:56:09.128Z,100261.55
2018-05-26T16:58:39.514Z,100260.14
2018-05-26T17:01:09.162Z,100264.31
2018-05-26T17:03:50.605Z,100274.05
2018-05-26T17:06:21.784Z,100270.52
2018-05-26T17:08:52.149Z,100271.45
2018-05-26T17:11:21.740Z,100270.77
2018-05-26T17:13:52.899Z,100269.58
2018-05-26T17:16:25.532Z,100270.96
2018-05-26T17:18:55.923Z,100275.69
2018-05-26T17:21:27.064Z,100277.05
2018-05-26T17:23:58.012Z,100275.89
2018-05-26T17:26:28.416Z,100278.17
2018-05-26T17:29:00.633Z,100277.93
2018-05-26T17:31:30.290Z,100276.55
2018-05-26T17:34:01.417Z,100273.12
2018-05-26T17:36:31.057Z,100274.73
2018-05-26T17:39:00.608Z,100274.50
2018-05-26T17:41:30.256Z,100277.48
2018-05-26T17:43:59.892Z,100277.39
2018-05-26T17:46:29.493Z,100284.22
2018-05-26T17:48:59.889Z,100284.52
2018-05-26T17:51:29.488Z,100284.84
2018-05-26T17:53:59.092Z,100288.33
2018-05-26T17:56:29.517Z,100288.26
2018-05-26T17:59:00.619Z,100289.98
2018-05-26T18:01:30.201Z,100289.64
2018-05-26T18:03:59.802Z,100290.08
2018-05-26T18:06:30.178Z,100290.66
2018-05-26T18:09:00.548Z,100291.95
2018-05-26T18:11:30.135Z,100294.28
2018-05-26T18:14:00.474Z,100290.00
2018-05-26T18:16:31.588Z,100290.16
2018-05-26T18:19:01.170Z,100290.70
2018-05-26T18:21:30.723Z,100290.95
2018-05-26T18:24:01.058Z,100298.24
2018-05-26T18:26:31.385Z,100291.91
2018-05-26T18:29:02.017Z,100295.33
2018-05-26T18:31:32.381Z,100299.22
2018-05-26T18:34:01.946Z,100298.74
2018-05-26T18:36:32.295Z,100300.61
2018-05-26T18:39:01.953Z,100301.27
2018-05-26T18:41:33.826Z,100303.38
2018-05-26T18:44:03.992Z,100300.04
2018-05-26T18:46:34.319Z,100299.08
2018-05-26T18:49:04.673Z,100296.48
2018-05-26T18:51:34.240Z,100300.30
2018-05-26T18:54:04.566Z,100295.88
2018-05-26T18:56:34.941Z,100302.85
2018-05-26T18:59:04.824Z,100301.46
2018-05-26T19:01:34.471Z,100310.94
2018-05-26T19:04:04.343Z,100315.98
2018-05-26T19:06:34.073Z,100317.37
2018-05-26T19:09:04.916Z,100318.67
2018-05-26T19:11:34.545Z,100315.50
2018-05-26T19:14:06.553Z,100316.88
2018-05-26T19:16:36.965Z,100314.21
2018-05-26T19:19:09.489Z,100323.34
2018-05-26T19:21:39.126Z,100319.59
2018-05-26T19:24:08.701Z,100321.89
2018-05-26T19:26:38.343Z,100319.38
2018-05-26T19:29:08.682Z,100322.05
2018-05-26T19:31:38.293Z,100324.47
2018-05-26T19:34:07.838Z,100323.38
2018-05-26T19:36:38.199Z,100322.44
2018-05-26T19:39:08.606Z,100320.33
2018-05-26T19:41:38.224Z,100320.20
2018-05-26T19:44:07.870Z,100317.27
2018-05-26T19:46:38.207Z,100321.52
2018-05-26T19:49:10.742Z,100319.22
2018-05-26T19:51:40.318Z,100321.28
2018-05-26T19:54:09.931Z,100326.48
2018-05-26T19:56:39.521Z,100337.19
2018-05-26T19:59:11.474Z,100337.44
2018-05-26T20:01:41.129Z,100344.75
2018-05-26T20:04:11.573Z,100347.27
2018-05-26T20:06:41.166Z,100350.59
2018-05-26T20:09:11.565Z,100348.50
2018-05-26T20:11:41.196Z,100349.61
2018-05-26T20:14:10.814Z,100351.68
2018-05-26T20:16:40.421Z,100351.77
2018-05-26T20:19:10.806Z,100354.56
2018-05-26T20:21:40.333Z,100355.02
2018-05-26T20:24:09.944Z,100357.07
2018-05-26T20:26:39.569Z,100353.73
2018-05-26T20:29:09.200Z,100355.44
2018-05-26T20:31:39.595Z,100357.51
2018-05-26T20:34:09.970Z,100360.47
2018-05-26T20:36:39.566Z,100357.97
2018-05-26T20:39:09.189Z,100357.86
2018-05-26T20:41:41.720Z,100356.97
2018-05-26T20:44:12.088Z,100362.10
2018-05-26T20:46:44.600Z,100363.78
2018-05-26T20:49:17.101Z,100365.81
2018-05-26T20:51:49.660Z,100364.36
2018-05-26T20:54:19.222Z,100366.92
2018-05-26T20:56:51.748Z,100363.93
2018-05-26T20:59:21.334Z,100362.04
2018-05-26T21:01:53.909Z,100359.72
2018-05-26T21:04:23.526Z,100363.28
2018-05-26T21:06:53.110Z,100360.22
2018-05-26T21:09:22.735Z,100358.56
2018-05-26T21:11:52.345Z,100359.76
2018-05-26T21:14:22.045Z,100360.48
2018-05-26T21:16:52.382Z,100360.74
2018-05-26T21:19:21.945Z,100359.02
2018-05-26T21:21:52.174Z,100361.42
2018-05-26T21:24:21.913Z,100366.75
2018-05-26T21:26:54.866Z,100362.95
2018-05-26T21:29:37.357Z,100358.69
2018-05-26T21:32:06.956Z,100358.18
2018-05-26T21:34:36.521Z,100361.59
2018-05-26T21:37:06.101Z,100356.83
2018-05-26T21:39:35.697Z,100355.29
2018-05-26T21:42:05.300Z,100355.13
2018-05-26T21:44:35.646Z,100359.84
2018-05-26T21:47:05.246Z,100358.48
2018-05-26T21:49:37.117Z,100362.14
2018-05-26T21:52:06.730Z,100356.56
2018-05-26T21:54:39.263Z,100353.36
2018-05-26T21:57:10.386Z,100355.23
2018-05-26T21:59:39.970Z,100362.36
2018-05-26T22:02:09.553Z,100365.05
2018-05-26T22:04:39.156Z,100360.89
2018-05-26T22:07:11.054Z,100363.73
2018-05-26T22:09:40.622Z,100367.77
2018-05-26T22:12:11.777Z,100371.63
2018-05-26T22:14:42.142Z,100369.50
2018-05-26T22:17:11.702Z,100368.66
2018-05-26T22:19:42.074Z,100366.02
2018-05-26T22:22:11.621Z,100357.91
2018-05-26T22:24:42.001Z,100359.66
2018-05-26T22:27:11.574Z,100356.95
2018-05-26T22:29:41.169Z,100354.27
2018-05-26T22:32:11.489Z,100353.38
2018-05-26T22:34:41.065Z,100354.52
2018-05-26T22:37:10.646Z,100353.75
2018-05-26T22:39:40.233Z,100353.81
2018-05-26T22:42:09.781Z,100348.03
2018-05-26T22:44:40.176Z,100344.72
2018-05-26T22:47:10.500Z,100345.55
2018-05-26T22:49:40.077Z,100344.94
2018-05-26T22:52:10.417Z,100340.62
2018-05-26T22:54:40.747Z,100336.69
2018-05-26T22:57:11.845Z,100334.05
2018-05-26T22:59:41.425Z,100337.70
2018-05-26T23:02:11.750Z,100340.48
2018-05-26T23:04:41.329Z,100337.37
2018-05-26T23:07:10.946Z,100341.12
2018-05-26T23:09:42.057Z,100341.25
2018-05-26T23:12:12.424Z,100340.84
2018-05-26T23:14:42.001Z,100338.83
2018-05-26T23:17:11.605Z,100334.56
2018-05-26T23:19:43.490Z,100336.23
2018-05-26T23:22:13.846Z,100339.38
2018-05-26T23:24:43.410Z,100337.59
2018-05-26T23:27:12.973Z,100341.57
2018-05-26T23:29:42.546Z,100336.77
2018-05-26T23:32:12.107Z,100336.14
2018-05-26T23:34:42.447Z,100331.97
2018-05-26T23:37:12.042Z,100333.29
2018-05-26T23:39:42.386Z,100331.98
2018-05-26T23:42:11.971Z,100329.51
2018-05-26T23:44:41.566Z,100325.64
2018-05-26T23:47:11.876Z,100323.23
2018-05-26T23:49:42.255Z,100320.27
2018-05-26T23:52:11.831Z,100318.28
2018-05-26T23:54:41.413Z,100315.09
2018-05-26T23:57:11.733Z,100312.36
2018-05-26T23:59:42.102Z,100320.66
